createdAt,value
2023-04-09T04:04:15.359Z,101600.19
2023-04-09T04:06:48.494Z,101599.47
2023-04-09T04:09:38.062Z,101601.72
2023-04-09T04:12:11.031Z,101602.38
2023-04-09T04:14:52.234Z,101608.31
2023-04-09T04:17:26.744Z,101612.91
2023-04-09T04:19:55.962Z,101609.34
2023-04-09T04:22:26.120Z,101609.50
2023-04-09T04:24:56.303Z,101615.28
2023-04-09T04:27:24.371Z,101606.31
2023-04-09T04:29:51.965Z,101618.53
2023-04-09T04:32:35.638Z,101617.53
2023-04-09T04:35:08.171Z,101628.06
2023-04-09T04:37:36.123Z,101618.19
2023-04-09T04:40:05.378Z,101621.91
2023-04-09T04:42:35.928Z,101619.72
2023-04-09T04:45:10.273Z,101618.19
2023-04-09T04:47:45.690Z,101621.56
2023-04-09T04:50:12.985Z,101632.78
2023-04-09T04:52:53.019Z,101626.19
2023-04-09T04:55:23.193Z,101635.34
2023-04-09T04:57:52.663Z,101626.16
2023-04-09T05:00:23.509Z,101632.81
2023-04-09T05:02:51.675Z,101640.25
2023-04-09T05:05:23.069Z,101643.97
2023-04-09T05:07:54.969Z,101646.53
2023-04-09T05:10:24.119Z,101650.63
2023-04-09T05:12:52.116Z,101649.41
2023-04-09T05:15:27.200Z,101654.50
2023-04-09T05:17:54.511Z,101655.84
2023-04-09T05:20:23.545Z,101662.38
2023-04-09T05:23:04.033Z,101658.50
2023-04-09T05:25:37.106Z,101662.44
2023-04-09T05:28:04.734Z,101669.53
2023-04-09T05:30:34.073Z,101668.09
2023-04-09T05:33:04.416Z,101669.16
2023-04-09T05:35:32.878Z,101666.09
2023-04-09T05:38:00.724Z,101671.53
2023-04-09T05:40:28.733Z,101665.56
2023-04-09T05:42:56.016Z,101672.88
2023-04-09T05:45:33.612Z,101660.81
2023-04-09T05:48:02.236Z,101665.56
2023-04-09T05:50:31.868Z,101659.09
2023-04-09T05:53:02.045Z,101658.91
2023-04-09T05:55:37.278Z,101668.97
2023-04-09T05:58:04.986Z,101673.72
2023-04-09T06:00:33.096Z,101677.28
2023-04-09T06:03:01.148Z,101678.16
2023-04-09T06:05:28.974Z,101681.22
2023-04-09T06:07:56.569Z,101681.91
2023-04-09T06:10:24.472Z,101685.28
2023-04-09T06:12:52.318Z,101691.75
2023-04-09T06:15:20.730Z,101692.41
2023-04-09T06:17:48.153Z,101691.72
2023-04-09T06:20:16.052Z,101699.53
2023-04-09T06:22:43.293Z,101702.09
2023-04-09T06:25:11.130Z,101704.97
2023-04-09T06:27:39.091Z,101714.16
2023-04-09T06:30:07.070Z,101718.31
2023-04-09T06:32:46.872Z,101711.94
2023-04-09T06:35:21.371Z,101714.53
2023-04-09T06:37:49.106Z,101719.69
2023-04-09T06:40:16.633Z,101707.59
2023-04-09T06:42:44.745Z,101711.81
2023-04-09T06:45:20.413Z,101714.97
2023-04-09T06:47:47.736Z,101710.69
2023-04-09T06:50:15.374Z,101706.69
2023-04-09T06:52:42.833Z,101705.53
2023-04-09T06:55:10.646Z,101710.19
2023-04-09T06:57:39.202Z,101720.00
2023-04-09T07:00:07.830Z,101725.59
2023-04-09T07:02:36.407Z,101720.72
2023-04-09T07:05:04.408Z,101724.06
2023-04-09T07:07:31.967Z,101733.25
2023-04-09T07:09:59.237Z,101738.00
2023-04-09T07:12:31.605Z,101734.91
2023-04-09T07:15:00.593Z,101745.00
2023-04-09T07:17:27.942Z,101739.34
2023-04-09T07:19:55.360Z,101736.69
2023-04-09T07:22:23.924Z,101737.28
2023-04-09T07:24:54.869Z,101733.97
2023-04-09T07:27:27.563Z,101732.94
2023-04-09T07:29:56.991Z,101729.69
2023-04-09T07:32:26.251Z,101735.25
2023-04-09T07:34:54.824Z,101736.00
2023-04-09T07:37:22.152Z,101743.34
2023-04-09T07:39:51.346Z,101742.09
2023-04-09T07:42:19.117Z,101738.00
2023-04-09T07:44:47.511Z,101729.31
2023-04-09T07:47:15.019Z,101738.06
2023-04-09T07:49:43.102Z,101735.44
2023-04-09T07:52:11.637Z,101744.97
2023-04-09T07:54:38.999Z,101745.16
2023-04-09T07:57:06.899Z,101749.44
2023-04-09T07:59:34.879Z,101753.03
2023-04-09T08:02:03.057Z,101753.13
2023-04-09T08:04:31.726Z,101755.50
2023-04-09T08:06:59.451Z,101750.22
2023-04-09T08:09:27.333Z,101759.09
2023-04-09T08:11:54.725Z,101747.06
2023-04-09T08:14:22.009Z,101748.06
2023-04-09T08:16:50.541Z,101747.75
2023-04-09T08:19:20.084Z,101745.72
2023-04-09T08:21:49.991Z,101743.75
2023-04-09T08:24:17.450Z,101737.94
2023-04-09T08:26:45.311Z,101742.59
2023-04-09T08:29:13.626Z,101732.97
2023-04-09T08:31:41.884Z,101735.06
2023-04-09T08:34:09.814Z,101740.88
2023-04-09T08:36:37.644Z,101746.84
2023-04-09T08:39:05.260Z,101743.19
2023-04-09T08:41:32.783Z,101750.72
2023-04-09T08:44:00.795Z,101751.28
2023-04-09T08:46:29.017Z,101745.50
2023-04-09T08:48:57.150Z,101742.06
2023-04-09T08:51:24.862Z,101742.22
2023-04-09T08:54:03.266Z,101750.19
2023-04-09T08:56:32.509Z,101749.09
2023-04-09T08:59:00.145Z,101748.31
2023-04-09T09:01:32.435Z,101761.16
2023-04-09T09:04:04.315Z,101764.47
2023-04-09T09:06:35.616Z,101753.03
2023-04-09T09:09:08.994Z,101761.63
2023-04-09T09:11:40.905Z,101763.66
2023-04-09T09:14:10.190Z,101757.59
2023-04-09T09:16:42.812Z,101751.94
2023-04-09T09:19:33.373Z,101761.06
2023-04-09T09:22:08.858Z,101763.19
2023-04-09T09:24:49.585Z,101760.88
2023-04-09T09:27:36.935Z,101761.63
2023-04-09T09:30:05.859Z,101766.34
2023-04-09T09:32:34.070Z,101763.84
2023-04-09T09:35:03.908Z,101760.47
2023-04-09T09:37:32.039Z,101760.91
2023-04-09T09:40:00.568Z,101752.66
2023-04-09T09:42:28.119Z,101752.03
2023-04-09T09:44:56.703Z,101758.78
2023-04-09T09:47:25.310Z,101755.63
2023-04-09T09:49:54.568Z,101750.78
2023-04-09T09:52:26.960Z,101746.53
2023-04-09T09:54:55.792Z,101743.34
2023-04-09T09:57:27.981Z,101742.31
2023-04-09T10:00:06.297Z,101736.75
2023-04-09T10:02:48.110Z,101731.63
2023-04-09T10:05:16.415Z,101736.84
2023-04-09T10:07:44.951Z,101724.59
2023-04-09T10:10:12.423Z,101725.53
2023-04-09T10:12:41.912Z,101726.34
2023-04-09T10:15:10.084Z,101723.63
2023-04-09T10:17:38.690Z,101720.25
2023-04-09T10:20:18.349Z,101721.91
2023-04-09T10:22:50.041Z,101716.78
2023-04-09T10:25:18.073Z,101716.06
2023-04-09T10:27:46.331Z,101717.13
2023-04-09T10:30:36.005Z,101712.44
2023-04-09T10:33:21.984Z,101719.81
2023-04-09T10:35:49.907Z,101716.66
2023-04-09T10:38:17.369Z,101708.91
2023-04-09T10:40:51.971Z,101705.72
2023-04-09T10:43:23.572Z,101711.59
2023-04-09T10:45:54.427Z,101701.69
2023-04-09T10:48:25.971Z,101688.97
2023-04-09T10:50:53.259Z,101694.25
2023-04-09T10:53:25.538Z,101689.88
2023-04-09T10:55:53.914Z,101682.22
2023-04-09T10:58:21.473Z,101687.81
2023-04-09T11:00:50.305Z,101690.16
2023-04-09T11:03:30.439Z,101679.41
2023-04-09T11:06:09.167Z,101685.00
2023-04-09T11:08:38.740Z,101682.34
2023-04-09T11:11:06.533Z,101673.00
2023-04-09T11:13:34.515Z,101663.75
2023-04-09T11:16:06.688Z,101678.06
2023-04-09T11:18:35.528Z,101676.56
2023-04-09T11:21:04.509Z,101675.47
2023-04-09T11:23:33.139Z,101674.06
2023-04-09T11:26:01.962Z,101667.47
2023-04-09T11:28:29.374Z,101668.91
2023-04-09T11:30:56.729Z,101667.63
2023-04-09T11:33:31.856Z,101665.69
2023-04-09T11:35:59.346Z,101663.53
2023-04-09T11:38:26.686Z,101666.28
2023-04-09T11:40:57.479Z,101659.47
2023-04-09T11:43:25.291Z,101658.00
2023-04-09T11:45:53.196Z,101658.66
2023-04-09T11:48:23.337Z,101659.72
2023-04-09T11:50:51.331Z,101663.97
2023-04-09T11:53:22.994Z,101648.59
2023-04-09T11:55:51.606Z,101650.50
2023-04-09T11:58:22.729Z,101650.41
2023-04-09T12:00:53.969Z,101650.06
2023-04-09T12:03:29.474Z,101646.38
2023-04-09T12:06:00.772Z,101641.94
2023-04-09T12:08:28.791Z,101641.38
2023-04-09T12:10:56.273Z,101639.72
2023-04-09T12:13:33.313Z,101645.19
2023-04-09T12:16:02.133Z,101635.31
2023-04-09T12:18:29.590Z,101641.09
2023-04-09T12:20:56.986Z,101640.84
2023-04-09T12:23:25.213Z,101634.09
2023-04-09T12:25:53.137Z,101631.41
2023-04-09T12:28:20.781Z,101628.81
2023-04-09T12:30:49.122Z,101626.28
2023-04-09T12:33:16.627Z,101626.66
2023-04-09T12:35:44.025Z,101620.13
2023-04-09T12:38:11.373Z,101627.66
2023-04-09T12:40:39.624Z,101627.19
2023-04-09T12:43:07.019Z,101624.31
2023-04-09T12:45:34.489Z,101616.75
2023-04-09T12:48:02.078Z,101619.28
2023-04-09T12:50:29.622Z,101620.31
2023-04-09T12:52:57.372Z,101618.75
2023-04-09T12:55:25.724Z,101618.69
2023-04-09T12:57:53.077Z,101619.63
2023-04-09T13:00:21.027Z,101614.56
2023-04-09T13:02:49.930Z,101603.81
2023-04-09T13:05:17.375Z,101604.19
2023-04-09T13:07:45.737Z,101602.44
2023-04-09T13:10:13.401Z,101602.59
2023-04-09T13:12:40.678Z,101596.28
2023-04-09T13:15:08.092Z,101587.97
2023-04-09T13:17:35.634Z,101585.75
2023-04-09T13:20:04.354Z,101583.50
2023-04-09T13:22:31.714Z,101580.09
2023-04-09T13:24:59.077Z,101568.34
2023-04-09T13:27:26.966Z,101571.44
2023-04-09T13:29:54.285Z,101565.97
2023-04-09T13:32:23.292Z,101569.19
2023-04-09T13:34:51.117Z,101563.28
2023-04-09T13:37:18.485Z,101559.81
2023-04-09T13:39:46.085Z,101550.69
2023-04-09T13:42:14.344Z,101547.19
2023-04-09T13:44:45.171Z,101545.88
2023-04-09T13:47:13.643Z,101544.78
2023-04-09T13:49:41.990Z,101542.75
2023-04-09T13:52:10.625Z,101530.47
2023-04-09T13:54:38.383Z,101540.38
2023-04-09T13:57:06.575Z,101531.38
2023-04-09T13:59:34.039Z,101528.22
2023-04-09T14:02:01.494Z,101511.69
2023-04-09T14:04:29.468Z,101513.31
2023-04-09T14:06:57.839Z,101508.19
2023-04-09T14:09:25.656Z,101505.56
2023-04-09T14:11:54.791Z,101506.25
2023-04-09T14:14:22.130Z,101501.59
2023-04-09T14:16:50.471Z,101500.38
2023-04-09T14:19:17.804Z,101497.41
2023-04-09T14:21:45.339Z,101496.63
2023-04-09T14:24:13.103Z,101464.38
2023-04-09T14:26:40.803Z,101463.75
2023-04-09T14:29:08.129Z,101456.44
2023-04-09T14:31:36.148Z,101470.09
2023-04-09T14:34:03.574Z,101483.06
2023-04-09T14:36:31.621Z,101472.75
2023-04-09T14:38:59.093Z,101480.03
2023-04-09T14:41:26.819Z,101488.16
2023-04-09T14:43:54.807Z,101491.72
2023-04-09T14:46:22.691Z,101484.28
2023-04-09T14:48:50.920Z,101483.84
2023-04-09T14:51:18.337Z,101489.69
2023-04-09T14:53:45.665Z,101479.22
2023-04-09T14:56:13.072Z,101478.50
2023-04-09T14:58:40.318Z,101476.69
2023-04-09T15:01:08.138Z,101486.41
2023-04-09T15:03:35.750Z,101473.09
2023-04-09T15:06:03.790Z,101483.78
2023-04-09T15:08:31.089Z,101476.34
2023-04-09T15:10:58.876Z,101474.38
2023-04-09T15:13:26.238Z,101462.47
2023-04-09T15:15:53.552Z,101458.56
2023-04-09T15:18:22.458Z,101451.53
2023-04-09T15:20:50.734Z,101456.34
2023-04-09T15:23:18.467Z,101463.41
2023-04-09T15:25:46.008Z,101463.78
2023-04-09T15:28:14.509Z,101454.13
2023-04-09T15:30:42.395Z,101464.50
2023-04-09T15:33:09.689Z,101455.19
2023-04-09T15:35:37.805Z,101450.78
2023-04-09T15:38:05.232Z,101457.00
2023-04-09T15:40:32.964Z,101467.56
2023-04-09T15:43:00.273Z,101466.47
2023-04-09T15:45:28.560Z,101452.56
2023-04-09T15:47:56.563Z,101455.91
2023-04-09T15:50:23.965Z,101459.47
2023-04-09T15:52:51.875Z,101479.88
2023-04-09T15:55:19.196Z,101469.78
2023-04-09T15:57:46.921Z,101459.91
2023-04-09T16:00:15.530Z,101453.13
2023-04-09T16:02:43.193Z,101453.44
2023-04-09T16:05:11.138Z,101464.47
2023-04-09T16:07:39.653Z,101474.97
2023-04-09T16:10:08.206Z,101478.91
2023-04-09T16:12:36.520Z,101485.09
2023-04-09T16:15:03.920Z,101483.16
2023-04-09T16:17:34.521Z,101465.47
2023-04-09T16:20:08.912Z,101468.69
2023-04-09T16:22:36.708Z,101472.53
2023-04-09T16:25:04.666Z,101469.66
2023-04-09T16:27:32.438Z,101473.81
2023-04-09T16:30:00.269Z,101473.38
2023-04-09T16:32:27.946Z,101473.06
2023-04-09T16:35:00.435Z,101468.03
2023-04-09T16:37:28.038Z,101472.56
2023-04-09T16:39:57.212Z,101466.78
2023-04-09T16:42:26.736Z,101461.78
2023-04-09T16:44:54.305Z,101473.47
2023-04-09T16:47:21.695Z,101477.19
2023-04-09T16:49:49.870Z,101474.78
2023-04-09T16:52:17.167Z,101480.59
2023-04-09T16:54:44.861Z,101487.75
2023-04-09T16:57:12.279Z,101486.94
2023-04-09T16:59:42.404Z,101490.06
2023-04-09T17:02:09.951Z,101489.34
2023-04-09T17:04:38.234Z,101500.88
2023-04-09T17:07:05.685Z,101509.03
2023-04-09T17:09:33.373Z,101498.53
2023-04-09T17:12:01.025Z,101507.53
2023-04-09T17:14:28.918Z,101507.97
2023-04-09T17:16:56.423Z,101521.88
2023-04-09T17:19:23.896Z,101522.59
2023-04-09T17:21:51.678Z,101516.34
2023-04-09T17:24:19.003Z,101522.66
2023-04-09T17:26:46.406Z,101528.44
2023-04-09T17:29:13.937Z,101527.59
2023-04-09T17:31:41.628Z,101539.78
2023-04-09T17:34:10.810Z,101534.78
2023-04-09T17:36:38.104Z,101543.97
2023-04-09T17:39:06.353Z,101536.09
2023-04-09T17:41:34.154Z,101538.38
2023-04-09T17:44:01.840Z,101540.06
2023-04-09T17:46:30.441Z,101544.66
2023-04-09T17:48:57.895Z,101553.84
2023-04-09T17:51:26.506Z,101550.81
2023-04-09T17:53:54.192Z,101564.03
2023-04-09T17:56:23.716Z,101561.41
2023-04-09T17:58:51.648Z,101577.56
2023-04-09T18:01:19.430Z,101581.63
2023-04-09T18:03:48.428Z,101585.13
2023-04-09T18:06:17.830Z,101583.00
2023-04-09T18:08:45.594Z,101584.22
2023-04-09T18:11:15.447Z,101593.25
2023-04-09T18:13:42.806Z,101593.19
2023-04-09T18:16:12.059Z,101594.94
2023-04-09T18:18:39.599Z,101591.38
2023-04-09T18:21:07.442Z,101599.19
2023-04-09T18:23:35.555Z,101609.25
2023-04-09T18:26:03.299Z,101604.63
2023-04-09T18:28:31.115Z,101617.28
2023-04-09T18:30:58.859Z,101625.97
2023-04-09T18:33:27.080Z,101630.78
2023-04-09T18:35:54.513Z,101634.97
2023-04-09T18:38:21.905Z,101632.06
2023-04-09T18:40:49.185Z,101628.66
2023-04-09T18:43:16.487Z,101642.34
2023-04-09T18:45:43.759Z,101648.06
2023-04-09T18:48:12.086Z,101658.53
2023-04-09T18:50:39.808Z,101656.75
2023-04-09T18:53:07.623Z,101664.47
2023-04-09T18:55:38.570Z,101668.03
2023-04-09T18:58:08.780Z,101676.41
2023-04-09T19:00:36.628Z,101682.56
2023-04-09T19:03:05.277Z,101686.19
2023-04-09T19:05:33.571Z,101692.53
2023-04-09T19:08:02.402Z,101697.97
2023-04-09T19:10:30.816Z,101701.41
2023-04-09T19:12:58.833Z,101712.16
2023-04-09T19:15:26.805Z,101719.63
2023-04-09T19:17:54.545Z,101729.13
2023-04-09T19:20:22.290Z,101732.81
2023-04-09T19:22:50.983Z,101733.91
2023-04-09T19:25:18.990Z,101738.44
2023-04-09T19:27:47.488Z,101735.84
2023-04-09T19:30:15.671Z,101749.59
2023-04-09T19:32:45.569Z,101756.53
2023-04-09T19:35:12.982Z,101752.84
2023-04-09T19:37:40.870Z,101753.88
2023-04-09T19:40:08.820Z,101766.63
2023-04-09T19:42:36.706Z,101770.31
2023-04-09T19:45:04.409Z,101772.81
2023-04-09T19:47:32.289Z,101773.44
2023-04-09T19:49:59.838Z,101774.25
2023-04-09T19:52:27.355Z,101774.97
2023-04-09T19:54:56.172Z,101774.09
2023-04-09T19:57:26.379Z,101777.28
2023-04-09T19:59:54.133Z,101778.25
2023-04-09T20:02:21.673Z,101778.81
2023-04-09T20:04:50.524Z,101781.25
2023-04-09T20:07:17.927Z,101778.16
2023-04-09T20:09:46.864Z,101783.63
2023-04-09T20:12:15.296Z,101788.09
2023-04-09T20:14:42.843Z,101788.56
2023-04-09T20:17:10.814Z,101794.53
2023-04-09T20:19:38.288Z,101804.94
2023-04-09T20:22:07.146Z,101796.97
2023-04-09T20:24:35.527Z,101804.28
2023-04-09T20:27:03.749Z,101803.69
2023-04-09T20:29:32.024Z,101807.56
2023-04-09T20:31:59.500Z,101805.78
2023-04-09T20:34:27.479Z,101800.06
2023-04-09T20:36:55.683Z,101810.03
2023-04-09T20:39:26.528Z,101808.81
2023-04-09T20:41:55.052Z,101803.16
2023-04-09T20:44:22.925Z,101814.31
2023-04-09T20:46:51.061Z,101815.16
2023-04-09T20:49:18.999Z,101818.22
2023-04-09T20:51:46.779Z,101824.63
2023-04-09T20:54:14.532Z,101820.91
2023-04-09T20:56:41.947Z,101829.78
2023-04-09T20:59:09.694Z,101834.13
2023-04-09T21:01:37.050Z,101827.53
2023-04-09T21:04:04.643Z,101831.84
2023-04-09T21:06:34.216Z,101838.25
2023-04-09T21:09:01.653Z,101843.25
2023-04-09T21:11:29.211Z,101845.81
2023-04-09T21:14:00.703Z,101844.84
2023-04-09T21:16:29.794Z,101845.97
2023-04-09T21:18:57.601Z,101848.88
2023-04-09T21:21:27.412Z,101847.88
2023-04-09T21:23:54.907Z,101848.41
2023-04-09T21:26:22.165Z,101852.44
2023-04-09T21:28:50.582Z,101848.03
2023-04-09T21:31:18.479Z,101854.34
2023-04-09T21:33:45.947Z,101854.56
2023-04-09T21:36:13.430Z,101864.19
2023-04-09T21:38:41.427Z,101857.66
2023-04-09T21:41:08.753Z,101857.47
2023-04-09T21:43:38.201Z,101863.81
2023-04-09T21:46:05.573Z,101858.84
2023-04-09T21:48:33.355Z,101860.56
2023-04-09T21:51:01.574Z,101860.47
2023-04-09T21:53:30.755Z,101871.88
2023-04-09T21:55:58.023Z,101870.03
2023-04-09T21:58:25.732Z,101874.50
2023-04-09T22:00:53.103Z,101870.88
2023-04-09T22:03:21.679Z,101874.44
2023-04-09T22:05:49.268Z,101874.34
2023-04-09T22:08:17.059Z,101873.72
2023-04-09T22:10:44.433Z,101869.25
2023-04-09T22:13:11.996Z,101875.59
2023-04-09T22:15:39.414Z,101871.19
2023-04-09T22:18:06.764Z,101877.69
2023-04-09T22:20:36.180Z,101882.13
2023-04-09T22:23:03.577Z,101879.25
2023-04-09T22:25:34.953Z,101875.47
2023-04-09T22:28:02.532Z,101872.94
2023-04-09T22:30:29.956Z,101879.06
2023-04-09T22:32:57.861Z,101869.66
2023-04-09T22:35:25.999Z,101877.50
2023-04-09T22:37:53.420Z,101871.22
2023-04-09T22:40:21.512Z,101880.09
2023-04-09T22:42:48.941Z,101882.28
2023-04-09T22:45:16.313Z,101886.72
2023-04-09T22:47:43.800Z,101889.78
2023-04-09T22:50:11.529Z,101897.78
2023-04-09T22:52:38.875Z,101896.06
2023-04-09T22:55:09.948Z,101900.63
2023-04-09T22:57:38.288Z,101901.28
2023-04-09T23:00:08.345Z,101909.84
2023-04-09T23:02:35.911Z,101913.25
2023-04-09T23:05:03.667Z,101906.03
2023-04-09T23:07:31.107Z,101913.25
2023-04-09T23:09:58.501Z,101915.63
2023-04-09T23:12:25.980Z,101919.88
2023-04-09T23:14:54.356Z,101927.88
2023-04-09T23:17:24.371Z,101916.66
2023-04-09T23:19:54.655Z,101921.25
2023-04-09T23:22:24.179Z,101926.72
2023-04-09T23:24:51.424Z,101913.44
2023-04-09T23:27:19.158Z,101914.47
2023-04-09T23:29:46.707Z,101919.88
2023-04-09T23:32:14.462Z,101916.25
2023-04-09T23:34:41.728Z,101918.69
2023-04-09T23:37:10.216Z,101913.69
2023-04-09T23:39:37.733Z,101916.75
2023-04-09T23:42:05.815Z,101915.91
2023-04-09T23:44:33.661Z,101920.91
2023-04-09T23:47:01.452Z,101920.88
2023-04-09T23:49:29.530Z,101918.00
2023-04-09T23:51:56.814Z,101911.22
2023-04-09T23:54:24.637Z,101910.81
2023-04-09T23:56:51.953Z,101911.31
2023-04-09T23:59:19.279Z,101912.38
